Time;durP1;ratioP1;P1;durP2;ratioP2;P2;SDS_P1;SDS_P2;PMS_P1;PMS_P2;Temp;Humidity;BMP_temperature;BMP_pressure;BME280_temperature;BME280_humidity;BME280_pressure;Samples;Min_cycle;Max_cycle;Signal;HPM_P1;HPM_P2
2023/08/11 00:02:11;;;;;;;;;8.00;8.00;;;;;;;;5156945;27;45384;-77
2023/08/11 00:04:36;;;;;;;;;11.00;11.00;;;;;;;;5156727;27;45488;-77
2023/08/11 00:07:02;;;;;;;;;10.33;10.33;;;;;;;;5156425;27;45375;-77
2023/08/11 00:09:27;;;;;;;;;14.67;14.00;;;;;;;;5157020;27;45259;-77
2023/08/11 00:11:52;;;;;;;;;13.67;13.00;;;;;;;;5157292;27;44761;-77
2023/08/11 00:14:17;;;;;;;;;13.00;13.00;;;;;;;;5155480;27;45427;-77
2023/08/11 00:16:42;;;;;;;;;13.00;13.00;;;;;;;;5155160;27;45320;-78
2023/08/11 00:19:08;;;;;;;;;13.00;13.00;;;;;;;;5155719;27;45334;-77
2023/08/11 00:21:33;;;;;;;;;12.67;12.00;;;;;;;;5155518;27;45204;-78
2023/08/11 00:23:58;;;;;;;;;12.00;12.00;;;;;;;;5156181;27;45317;-77
2023/08/11 00:26:23;;;;;;;;;11.67;11.67;;;;;;;;5162024;27;45251;-77
2023/08/11 00:28:48;;;;;;;;;12.67;12.67;;;;;;;;5153031;27;45207;-77
2023/08/11 00:31:14;;;;;;;;;13.67;13.33;;;;;;;;5160956;27;45260;-77
2023/08/11 00:33:41;;;;;;;;;11.67;11.67;;;;;;;;5160789;27;45473;-77
2023/08/11 00:36:06;;;;;;;;;12.33;10.67;;;;;;;;5162120;27;44668;-76
2023/08/11 00:38:38;;;;;;;;;15.00;14.33;;;;;;;;5162937;27;45569;-77
2023/08/11 00:41:03;;;;;;;;;10.67;10.67;;;;;;;;5143276;27;45963;-77
2023/08/11 00:43:29;;;;;;;;;11.67;11.67;;;;;;;;5161300;27;46249;-77
2023/08/11 00:45:54;;;;;;;;;11.00;11.00;;;;;;;;5160940;27;45173;-77
2023/08/11 00:48:19;;;;;;;;;13.33;13.33;;;;;;;;5161278;27;45399;-77
2023/08/11 00:50:44;;;;;;;;;10.67;10.33;;;;;;;;5160947;27;45456;-77
2023/08/11 00:53:10;;;;;;;;;12.00;12.00;;;;;;;;5160337;27;46324;-77
2023/08/11 00:55:35;;;;;;;;;11.67;11.67;;;;;;;;5160215;27;44771;-77
2023/08/11 00:58:01;;;;;;;;;12.67;12.67;;;;;;;;5161002;27;45459;-76
2023/08/11 01:00:27;;;;;;;;;11.67;11.67;;;;;;;;5160442;27;45440;-77
2023/08/11 01:02:53;;;;;;;;;12.67;12.67;;;;;;;;5159994;27;45316;-77
2023/08/11 01:05:19;;;;;;;;;11.00;11.00;;;;;;;;5160925;27;45264;-77
2023/08/11 01:08:03;;;;;;;;;12.00;11.33;;;;;;;;5160916;27;45214;-77
2023/08/11 01:10:36;;;;;;;;;10.33;10.00;;;;;;;;5158891;27;45429;-77
2023/08/11 01:13:04;;;;;;;;;9.00;9.00;;;;;;;;5160516;27;46232;-77
2023/08/11 01:15:31;;;;;;;;;12.00;12.00;;;;;;;;5160202;27;45266;-77
2023/08/11 01:17:57;;;;;;;;;11.00;11.00;;;;;;;;5159742;27;45221;-77
2023/08/11 01:20:23;;;;;;;;;11.00;10.67;;;;;;;;5160417;27;44961;-77
2023/08/11 01:22:51;;;;;;;;;10.67;10.00;;;;;;;;5160361;27;45247;-77
2023/08/11 01:25:17;;;;;;;;;11.00;11.00;;;;;;;;5160015;27;45292;-77
2023/08/11 01:27:47;;;;;;;;;11.33;11.33;;;;;;;;5160050;27;45266;-77
2023/08/11 01:30:12;;;;;;;;;16.33;14.33;;;;;;;;5124262;27;47045;-77
2023/08/11 01:32:38;;;;;;;;;13.33;13.33;;;;;;;;5138852;27;45286;-77
2023/08/11 01:35:05;;;;;;;;;12.67;12.67;;;;;;;;5139250;27;45414;-77
2023/08/11 01:37:31;;;;;;;;;12.67;12.67;;;;;;;;5118515;27;44806;-76
2023/08/11 01:39:56;;;;;;;;;12.67;12.67;;;;;;;;5138326;27;45131;-77
2023/08/11 01:42:22;;;;;;;;;13.67;13.00;;;;;;;;5136465;27;45119;-77
2023/08/11 01:44:48;;;;;;;;;12.00;11.00;;;;;;;;5137090;27;44674;-76
2023/08/11 01:47:13;;;;;;;;;13.33;13.33;;;;;;;;5136807;27;45490;-76
2023/08/11 01:49:39;;;;;;;;;11.00;11.00;;;;;;;;5137432;27;44963;-76
2023/08/11 01:52:05;;;;;;;;;13.00;12.00;;;;;;;;5136448;27;45365;-76
2023/08/11 01:54:30;;;;;;;;;11.00;11.00;;;;;;;;5137400;27;45215;-76
2023/08/11 01:56:55;;;;;;;;;12.33;12.33;;;;;;;;5138837;27;45548;-76
2023/08/11 01:59:20;;;;;;;;;12.67;11.67;;;;;;;;5120972;27;46056;-76
2023/08/11 02:01:46;;;;;;;;;12.33;12.33;;;;;;;;5139056;27;45198;-76
2023/08/11 02:04:12;;;;;;;;;10.00;10.00;;;;;;;;5138886;27;45234;-76
2023/08/11 02:06:38;;;;;;;;;14.00;13.33;;;;;;;;5138036;27;45301;-76
2023/08/11 02:09:07;;;;;;;;;12.00;12.00;;;;;;;;5138746;27;44820;-76
2023/08/11 02:11:33;;;;;;;;;14.33;13.67;;;;;;;;5119995;27;48242;-77
2023/08/11 02:13:58;;;;;;;;;13.00;11.67;;;;;;;;5138149;27;45276;-76
2023/08/11 02:16:23;;;;;;;;;14.00;13.00;;;;;;;;5138456;27;45326;-76
2023/08/11 02:18:49;;;;;;;;;12.00;12.00;;;;;;;;5138980;27;45460;-76
2023/08/11 02:21:14;;;;;;;;;11.33;11.33;;;;;;;;5138536;27;45306;-76
2023/08/11 02:23:39;;;;;;;;;12.33;12.33;;;;;;;;5139314;27;45153;-76
2023/08/11 02:26:05;;;;;;;;;14.00;12.33;;;;;;;;5139502;27;45231;-76
2023/08/11 02:28:31;;;;;;;;;12.00;11.00;;;;;;;;5140682;27;45153;-75
2023/08/11 02:30:57;;;;;;;;;11.67;11.67;;;;;;;;5159424;27;44936;-76
2023/08/11 02:33:22;;;;;;;;;12.33;11.67;;;;;;;;5159840;27;45357;-76
2023/08/11 02:35:47;;;;;;;;;12.33;11.33;;;;;;;;5159700;27;45478;-76
2023/08/11 02:38:13;;;;;;;;;11.33;11.33;;;;;;;;5159820;27;45431;-76
2023/08/11 02:40:38;;;;;;;;;12.00;11.33;;;;;;;;5159511;27;45699;-75
2023/08/11 02:43:04;;;;;;;;;10.00;10.00;;;;;;;;5159593;27;45011;-76
2023/08/11 02:45:29;;;;;;;;;11.33;11.00;;;;;;;;5159697;27;44589;-76
2023/08/11 02:47:54;;;;;;;;;13.67;12.67;;;;;;;;5158982;27;44797;-76
2023/08/11 02:50:19;;;;;;;;;11.00;11.00;;;;;;;;5140435;27;47183;-77
2023/08/11 02:52:44;;;;;;;;;11.00;11.00;;;;;;;;5159050;27;44656;-77
2023/08/11 02:55:11;;;;;;;;;12.00;11.00;;;;;;;;5140391;27;45472;-77
2023/08/11 02:57:36;;;;;;;;;10.33;10.33;;;;;;;;5159202;27;45294;-76
2023/08/11 03:00:08;;;;;;;;;12.33;11.00;;;;;;;;5157981;27;45293;-76
2023/08/11 03:02:33;;;;;;;;;10.00;10.00;;;;;;;;5158593;27;45690;-77
2023/08/11 03:04:58;;;;;;;;;11.00;10.67;;;;;;;;5159180;27;45371;-76
2023/08/11 03:07:23;;;;;;;;;13.67;12.67;;;;;;;;5138936;27;45925;-77
2023/08/11 03:09:48;;;;;;;;;12.67;12.33;;;;;;;;5158707;27;46481;-76
2023/08/11 03:12:14;;;;;;;;;11.00;10.33;;;;;;;;5157858;27;44627;-77
2023/08/11 03:14:39;;;;;;;;;11.33;11.33;;;;;;;;5138685;27;45314;-78
2023/08/11 03:17:05;;;;;;;;;10.00;10.00;;;;;;;;5156580;27;45478;-77
2023/08/11 03:19:30;;;;;;;;;10.00;10.00;;;;;;;;5137113;27;47221;-77
2023/08/11 03:21:56;;;;;;;;;10.00;8.67;;;;;;;;5155883;27;45510;-77
2023/08/11 03:24:21;;;;;;;;;9.33;9.33;;;;;;;;5137891;27;45697;-77
2023/08/11 03:26:46;;;;;;;;;11.00;10.33;;;;;;;;5138078;27;45939;-76
2023/08/11 03:29:11;;;;;;;;;9.00;9.00;;;;;;;;5149273;27;46031;-76
2023/08/11 03:31:37;;;;;;;;;11.33;11.33;;;;;;;;5137756;27;45372;-76
2023/08/11 03:34:02;;;;;;;;;9.33;9.33;;;;;;;;5138398;27;45299;-76
2023/08/11 03:36:27;;;;;;;;;10.33;8.67;;;;;;;;5137042;27;44846;-76
2023/08/11 03:38:52;;;;;;;;;10.00;9.00;;;;;;;;5137989;27;46629;-77
2023/08/11 03:41:17;;;;;;;;;12.33;12.00;;;;;;;;5136867;27;45255;-76
2023/08/11 03:43:43;;;;;;;;;10.33;10.33;;;;;;;;5137718;27;45251;-76
2023/08/11 03:46:09;;;;;;;;;11.67;11.67;;;;;;;;5137108;27;44793;-77
2023/08/11 03:48:34;;;;;;;;;11.33;9.67;;;;;;;;5137235;27;45177;-77
2023/08/11 03:50:59;;;;;;;;;10.00;10.00;;;;;;;;5137950;27;45325;-76
2023/08/11 03:53:25;;;;;;;;;12.00;12.00;;;;;;;;5119382;27;45219;-76
2023/08/11 03:55:51;;;;;;;;;12.00;12.00;;;;;;;;5136450;27;45373;-76
2023/08/11 03:58:16;;;;;;;;;11.33;11.33;;;;;;;;5137244;27;45110;-77
2023/08/11 04:00:41;;;;;;;;;12.00;11.67;;;;;;;;5121684;27;45189;-76
2023/08/11 04:03:09;;;;;;;;;11.33;11.00;;;;;;;;5122783;27;45157;-76
2023/08/11 04:05:34;;;;;;;;;10.00;10.00;;;;;;;;5140514;27;45236;-76
2023/08/11 04:07:59;;;;;;;;;10.00;10.00;;;;;;;;5140127;27;45181;-77
2023/08/11 04:10:25;;;;;;;;;9.67;9.33;;;;;;;;5140556;27;45325;-77
2023/08/11 04:12:50;;;;;;;;;11.33;10.00;;;;;;;;5140427;27;45460;-77
2023/08/11 04:15:15;;;;;;;;;10.00;10.00;;;;;;;;5120940;27;46294;-77
2023/08/11 04:17:40;;;;;;;;;9.00;9.00;;;;;;;;5140098;27;46117;-76
2023/08/11 04:20:15;;;;;;;;;11.33;11.33;;;;;;;;5140938;27;44613;-76
2023/08/11 04:22:40;;;;;;;;;13.00;12.00;;;;;;;;5121782;27;45393;-75
2023/08/11 04:25:07;;;;;;;;;11.67;10.33;;;;;;;;5140359;27;45236;-76
2023/08/11 04:27:32;;;;;;;;;11.67;11.00;;;;;;;;5139770;27;45321;-76
2023/08/11 04:29:57;;;;;;;;;13.00;12.00;;;;;;;;5153875;27;45373;-76
2023/08/11 04:32:22;;;;;;;;;10.00;8.00;;;;;;;;5142383;27;45517;-76
2023/08/11 04:34:49;;;;;;;;;9.00;9.00;;;;;;;;5140533;27;47207;-77
2023/08/11 04:37:14;;;;;;;;;10.67;10.67;;;;;;;;5160517;27;45276;-77
2023/08/11 04:39:39;;;;;;;;;10.00;9.33;;;;;;;;5160650;27;45197;-77
2023/08/11 04:42:04;;;;;;;;;10.33;10.33;;;;;;;;5160724;27;45157;-77
2023/08/11 04:44:29;;;;;;;;;11.67;11.67;;;;;;;;5159637;27;45296;-76
2023/08/11 04:46:55;;;;;;;;;12.67;11.33;;;;;;;;5160513;27;45190;-76
2023/08/11 04:49:20;;;;;;;;;10.67;10.67;;;;;;;;5140780;27;44737;-76
2023/08/11 04:51:45;;;;;;;;;12.00;12.00;;;;;;;;5159335;27;45561;-77
2023/08/11 04:54:11;;;;;;;;;10.00;10.00;;;;;;;;5159154;27;45267;-75
2023/08/11 04:56:36;;;;;;;;;9.00;9.00;;;;;;;;5161166;27;46228;-76
2023/08/11 04:59:02;;;;;;;;;11.33;11.33;;;;;;;;5161475;27;45258;-77
2023/08/11 05:01:27;;;;;;;;;9.00;9.00;;;;;;;;5142753;27;45496;-76
2023/08/11 05:03:52;;;;;;;;;11.00;10.33;;;;;;;;5142225;27;47212;-76
2023/08/11 05:06:18;;;;;;;;;11.33;10.33;;;;;;;;5160496;27;45990;-76
2023/08/11 05:08:43;;;;;;;;;11.00;11.00;;;;;;;;5160125;27;45235;-76
2023/08/11 05:11:09;;;;;;;;;10.00;10.00;;;;;;;;5158976;27;45309;-76
2023/08/11 05:13:35;;;;;;;;;10.00;10.00;;;;;;;;5161003;27;45348;-77
2023/08/11 05:16:00;;;;;;;;;12.00;11.00;;;;;;;;5159975;27;45224;-77
2023/08/11 05:18:26;;;;;;;;;9.00;9.00;;;;;;;;5159825;27;45376;-77
2023/08/11 05:20:52;;;;;;;;;11.00;10.00;;;;;;;;5160139;27;45403;-76
2023/08/11 05:23:18;;;;;;;;;11.00;11.00;;;;;;;;5147780;27;45333;-77
2023/08/11 05:25:43;;;;;;;;;10.00;10.00;;;;;;;;5124843;27;45293;-77
2023/08/11 05:28:09;;;;;;;;;13.00;13.00;;;;;;;;5133481;27;44764;-76
2023/08/11 05:30:34;;;;;;;;;10.33;10.33;;;;;;;;5138054;27;45424;-77
2023/08/11 05:32:59;;;;;;;;;10.00;10.00;;;;;;;;5132044;27;45294;-76
2023/08/11 05:35:26;;;;;;;;;7.33;7.33;;;;;;;;5108740;27;45319;-75
2023/08/11 05:37:51;;;;;;;;;13.33;13.00;;;;;;;;5086090;27;45357;-76
2023/08/11 05:40:16;;;;;;;;;11.67;11.00;;;;;;;;5116350;27;45211;-77
2023/08/11 05:42:42;;;;;;;;;11.00;10.33;;;;;;;;5114579;27;45313;-75
2023/08/11 05:45:07;;;;;;;;;11.33;11.33;;;;;;;;5110249;27;45343;-77
2023/08/11 05:47:32;;;;;;;;;10.33;10.00;;;;;;;;5111103;27;44699;-76
2023/08/11 05:49:58;;;;;;;;;14.00;11.67;;;;;;;;5104165;27;45292;-79
2023/08/11 05:52:23;;;;;;;;;13.00;12.00;;;;;;;;5102169;27;45448;-79
2023/08/11 05:54:48;;;;;;;;;13.00;12.00;;;;;;;;5084018;27;45688;-77
2023/08/11 05:57:14;;;;;;;;;11.33;11.00;;;;;;;;5083768;27;45893;-78
2023/08/11 05:59:39;;;;;;;;;11.33;11.33;;;;;;;;5103749;27;45326;-78
2023/08/11 06:02:04;;;;;;;;;15.33;13.67;;;;;;;;5105052;27;45426;-78
2023/08/11 06:04:29;;;;;;;;;10.00;10.00;;;;;;;;5103625;27;46399;-79
2023/08/11 06:06:54;;;;;;;;;10.67;10.33;;;;;;;;5104705;27;45409;-79
2023/08/11 06:09:21;;;;;;;;;12.00;10.67;;;;;;;;5105548;27;45541;-78
2023/08/11 06:11:47;;;;;;;;;11.00;9.00;;;;;;;;5102981;27;45424;-77
2023/08/11 06:14:12;;;;;;;;;10.33;8.00;;;;;;;;5083372;27;46993;-79
2023/08/11 06:16:37;;;;;;;;;9.67;9.67;;;;;;;;5101083;27;45345;-80
2023/08/11 06:19:03;;;;;;;;;9.67;9.67;;;;;;;;5129622;27;45270;-80
2023/08/11 06:21:28;;;;;;;;;12.00;12.00;;;;;;;;5128690;27;45317;-78
2023/08/11 06:23:53;;;;;;;;;8.67;8.67;;;;;;;;5126217;27;46556;-77
2023/08/11 06:26:18;;;;;;;;;12.67;10.67;;;;;;;;5122799;27;45235;-76
2023/08/11 06:28:45;;;;;;;;;9.00;9.00;;;;;;;;5126813;27;45386;-77
2023/08/11 06:31:10;;;;;;;;;12.33;12.33;;;;;;;;5145717;27;45561;-77
2023/08/11 06:33:35;;;;;;;;;12.00;11.00;;;;;;;;5124155;27;48297;-77
2023/08/11 06:36:00;;;;;;;;;11.00;10.33;;;;;;;;5124396;27;45369;-77
2023/08/11 06:38:25;;;;;;;;;11.00;11.00;;;;;;;;5145370;27;45376;-76
2023/08/11 06:40:51;;;;;;;;;10.00;10.00;;;;;;;;5142864;27;45630;-77
2023/08/11 06:43:17;;;;;;;;;13.00;11.67;;;;;;;;5092680;27;48301;-77
2023/08/11 06:45:44;;;;;;;;;9.33;9.33;;;;;;;;5118633;27;45218;-75
2023/08/11 06:48:10;;;;;;;;;10.33;10.33;;;;;;;;5122060;27;45401;-76
2023/08/11 06:50:35;;;;;;;;;8.00;8.00;;;;;;;;5121560;27;45337;-76
2023/08/11 06:53:00;;;;;;;;;9.67;9.00;;;;;;;;5122038;27;46305;-74
2023/08/11 06:55:25;;;;;;;;;10.00;10.00;;;;;;;;5122034;27;45340;-74
2023/08/11 06:57:50;;;;;;;;;9.33;9.33;;;;;;;;5121734;27;45301;-74
2023/08/11 07:00:16;;;;;;;;;9.00;9.00;;;;;;;;5120666;27;45422;-74
2023/08/11 07:02:41;;;;;;;;;12.00;11.00;;;;;;;;5121455;27;46270;-74
2023/08/11 07:05:06;;;;;;;;;8.33;7.67;;;;;;;;5122766;27;45275;-73
2023/08/11 07:07:31;;;;;;;;;13.67;11.67;;;;;;;;5103089;27;45262;-74
2023/08/11 07:09:57;;;;;;;;;13.00;13.00;;;;;;;;5080311;27;46203;-74
2023/08/11 07:12:22;;;;;;;;;15.00;14.00;;;;;;;;5110703;27;45546;-74
2023/08/11 07:14:47;;;;;;;;;13.67;13.33;;;;;;;;5109061;27;45406;-74
2023/08/11 07:17:12;;;;;;;;;12.33;11.67;;;;;;;;5111309;27;45461;-74
2023/08/11 07:19:38;;;;;;;;;11.00;11.00;;;;;;;;5111659;27;45239;-75
2023/08/11 07:22:03;;;;;;;;;11.33;11.33;;;;;;;;5109597;27;45353;-74
2023/08/11 07:24:28;;;;;;;;;13.00;13.00;;;;;;;;5109849;27;45372;-74
2023/08/11 07:26:53;;;;;;;;;9.67;9.00;;;;;;;;5115720;27;45594;-75
2023/08/11 07:29:19;;;;;;;;;12.67;12.33;;;;;;;;5119943;27;45389;-74
2023/08/11 07:31:44;;;;;;;;;11.33;11.33;;;;;;;;5119800;27;45492;-74
2023/08/11 07:34:09;;;;;;;;;9.67;9.67;;;;;;;;5094578;27;45697;-74
2023/08/11 07:36:34;;;;;;;;;11.00;9.67;;;;;;;;5094728;27;45505;-74
2023/08/11 07:38:59;;;;;;;;;12.33;12.00;;;;;;;;5113713;27;45357;-74
2023/08/11 07:41:25;;;;;;;;;9.00;9.00;;;;;;;;5124819;27;45610;-74
2023/08/11 07:43:50;;;;;;;;;12.67;12.00;;;;;;;;5113034;27;45349;-74
2023/08/11 07:46:16;;;;;;;;;12.33;10.00;;;;;;;;5128363;27;45610;-74
2023/08/11 07:48:41;;;;;;;;;12.00;12.00;;;;;;;;5118077;27;45569;-73
2023/08/11 07:51:06;;;;;;;;;12.00;11.00;;;;;;;;5115019;27;45645;-74
2023/08/11 07:53:31;;;;;;;;;12.33;12.00;;;;;;;;5117415;27;45354;-74
2023/08/11 07:55:57;;;;;;;;;12.67;11.33;;;;;;;;5091878;27;45282;-75
2023/08/11 07:58:22;;;;;;;;;14.67;14.67;;;;;;;;5114621;27;45239;-74
2023/08/11 08:00:48;;;;;;;;;15.00;15.00;;;;;;;;5117699;27;45542;-75
2023/08/11 08:03:13;;;;;;;;;15.33;15.33;;;;;;;;5117669;27;46573;-75
2023/08/11 08:05:38;;;;;;;;;11.33;11.00;;;;;;;;5115439;27;45483;-74
2023/08/11 08:08:03;;;;;;;;;12.67;12.67;;;;;;;;5136892;27;45648;-74
2023/08/11 08:10:29;;;;;;;;;12.67;12.67;;;;;;;;5115970;27;45880;-74
2023/08/11 08:12:54;;;;;;;;;13.67;13.00;;;;;;;;5090628;27;45408;-74
2023/08/11 08:15:19;;;;;;;;;13.33;13.33;;;;;;;;5119677;27;45216;-73
2023/08/11 08:17:45;;;;;;;;;13.33;13.33;;;;;;;;5126208;27;45404;-73
2023/08/11 08:20:13;;;;;;;;;15.00;14.00;;;;;;;;5135613;27;45540;-73
2023/08/11 08:22:38;;;;;;;;;14.67;14.33;;;;;;;;5122079;27;45341;-73
2023/08/11 08:25:06;;;;;;;;;15.33;12.67;;;;;;;;5126741;27;45269;-73
2023/08/11 08:27:35;;;;;;;;;13.00;12.67;;;;;;;;5118205;27;45649;-73
2023/08/11 08:30:00;;;;;;;;;16.00;15.67;;;;;;;;5116535;27;45805;-73
2023/08/11 08:32:25;;;;;;;;;4.67;4.67;;;;;;;;5081426;27;45688;-74
2023/08/11 08:34:50;;;;;;;;;14.00;14.00;;;;;;;;5102476;27;45411;-74
2023/08/11 08:37:19;;;;;;;;;15.67;15.67;;;;;;;;5106230;27;45383;-74
2023/08/11 08:39:46;;;;;;;;;16.00;16.00;;;;;;;;5121749;27;45656;-74
2023/08/11 08:42:11;;;;;;;;;16.00;15.00;;;;;;;;5120956;27;45271;-74
2023/08/11 08:44:37;;;;;;;;;14.67;14.67;;;;;;;;5104790;27;45484;-73
2023/08/11 08:47:04;;;;;;;;;13.67;12.67;;;;;;;;5126531;27;45272;-74
2023/08/11 08:49:29;;;;;;;;;14.00;14.00;;;;;;;;5124939;27;45342;-74
2023/08/11 08:51:54;;;;;;;;;15.00;15.00;;;;;;;;5129005;27;45324;-73
2023/08/11 08:54:20;;;;;;;;;14.33;12.00;;;;;;;;5105586;27;45524;-74
2023/08/11 08:56:45;;;;;;;;;13.33;13.33;;;;;;;;5105806;27;45256;-74
2023/08/11 08:59:11;;;;;;;;;13.67;13.67;;;;;;;;5105880;27;45330;-74
2023/08/11 09:01:36;;;;;;;;;14.67;14.33;;;;;;;;5108660;27;45488;-73
2023/08/11 09:04:02;;;;;;;;;18.00;17.67;;;;;;;;5113013;27;45517;-73
2023/08/11 09:06:28;;;;;;;;;11.67;11.00;;;;;;;;5117497;27;45447;-73
2023/08/11 09:08:53;;;;;;;;;14.67;13.00;;;;;;;;5118146;27;45517;-73
2023/08/11 09:11:19;;;;;;;;;15.67;14.67;;;;;;;;5117941;27;46577;-73
2023/08/11 09:13:47;;;;;;;;;14.67;14.67;;;;;;;;5118952;27;45305;-74
2023/08/11 09:16:13;;;;;;;;;15.00;15.00;;;;;;;;5097161;27;46021;-74
2023/08/11 09:18:38;;;;;;;;;13.00;13.00;;;;;;;;5117210;27;45484;-74
2023/08/11 09:21:04;;;;;;;;;16.00;14.67;;;;;;;;5089470;27;45589;-73
2023/08/11 09:23:29;;;;;;;;;11.67;11.67;;;;;;;;5094373;27;45317;-75
2023/08/11 09:25:54;;;;;;;;;14.33;13.00;;;;;;;;5112176;27;45257;-75
2023/08/11 09:28:20;;;;;;;;;14.67;13.00;;;;;;;;5111619;27;45341;-73
2023/08/11 09:30:46;;;;;;;;;13.33;13.33;;;;;;;;5113333;27;45335;-75
2023/08/11 09:33:11;;;;;;;;;19.00;17.67;;;;;;;;5112100;27;45343;-74
2023/08/11 09:35:37;;;;;;;;;16.33;15.00;;;;;;;;5093216;27;47152;-73
2023/08/11 09:38:02;;;;;;;;;13.33;13.33;;;;;;;;5112946;27;45391;-74
2023/08/11 09:40:28;;;;;;;;;14.67;12.00;;;;;;;;5111088;27;46050;-74
2023/08/11 09:42:54;;;;;;;;;12.00;12.00;;;;;;;;5095270;27;45441;-74
2023/08/11 09:45:19;;;;;;;;;15.67;14.33;;;;;;;;5120142;27;45527;-75
2023/08/11 09:47:44;;;;;;;;;12.67;12.00;;;;;;;;5103388;27;46174;-75
2023/08/11 09:50:09;;;;;;;;;14.33;13.00;;;;;;;;5102604;27;45307;-74
2023/08/11 09:52:35;;;;;;;;;12.00;12.00;;;;;;;;5101688;27;45421;-74
2023/08/11 09:55:03;;;;;;;;;15.33;14.67;;;;;;;;5101193;27;45335;-75
2023/08/11 09:57:29;;;;;;;;;17.33;13.67;;;;;;;;5100999;27;45388;-74
2023/08/11 09:59:55;;;;;;;;;15.00;15.00;;;;;;;;5101571;27;45430;-74
2023/08/11 10:02:22;;;;;;;;;17.33;15.67;;;;;;;;5101971;27;45252;-74
2023/08/11 10:04:56;;;;;;;;;16.67;14.00;;;;;;;;5102204;27;45290;-75
2023/08/11 10:07:22;;;;;;;;;14.67;14.00;;;;;;;;5109507;27;45476;-74
2023/08/11 10:09:48;;;;;;;;;12.33;12.00;;;;;;;;5122091;27;45314;-74
2023/08/11 10:12:13;;;;;;;;;15.33;13.67;;;;;;;;5123991;27;45400;-74
2023/08/11 10:14:39;;;;;;;;;12.67;12.67;;;;;;;;5122482;27;45371;-75
2023/08/11 10:17:04;;;;;;;;;17.00;14.33;;;;;;;;5122514;27;45219;-74
2023/08/11 10:19:30;;;;;;;;;13.00;13.00;;;;;;;;5122703;27;45355;-75
2023/08/11 10:21:56;;;;;;;;;14.00;14.00;;;;;;;;5126048;27;45369;-75
2023/08/11 10:24:22;;;;;;;;;14.00;14.00;;;;;;;;5132136;27;44778;-76
2023/08/11 10:26:48;;;;;;;;;14.00;14.00;;;;;;;;5113897;27;47402;-75
2023/08/11 10:29:14;;;;;;;;;15.00;14.00;;;;;;;;5138716;27;45182;-75
2023/08/11 10:31:53;;;;;;;;;17.33;15.33;;;;;;;;5125972;27;45400;-75
2023/08/11 10:34:20;;;;;;;;;14.67;13.33;;;;;;;;5144587;27;45329;-75
2023/08/11 10:36:45;;;;;;;;;16.67;15.00;;;;;;;;5125734;27;48107;-76
2023/08/11 10:39:16;;;;;;;;;13.00;13.00;;;;;;;;5144588;27;45198;-77
2023/08/11 10:41:44;;;;;;;;;15.33;15.00;;;;;;;;5123993;27;45347;-75
2023/08/11 10:44:09;;;;;;;;;15.67;15.67;;;;;;;;5122258;27;45405;-74
2023/08/11 10:46:35;;;;;;;;;15.33;15.33;;;;;;;;5123703;27;45322;-75
2023/08/11 10:49:07;;;;;;;;;16.33;16.33;;;;;;;;5122106;27;45311;-75
2023/08/11 10:51:39;;;;;;;;;18.33;18.33;;;;;;;;5121731;27;45322;-74
2023/08/11 10:54:11;;;;;;;;;16.00;16.00;;;;;;;;5120620;27;46518;-75
2023/08/11 10:56:37;;;;;;;;;16.00;14.67;;;;;;;;5101976;27;45738;-76
2023/08/11 10:59:06;;;;;;;;;15.33;15.00;;;;;;;;5090062;27;45645;-74
2023/08/11 11:01:35;;;;;;;;;12.67;12.67;;;;;;;;5094480;27;45598;-75
2023/08/11 11:04:01;;;;;;;;;13.00;13.00;;;;;;;;5093337;27;45534;-74
2023/08/11 11:06:26;;;;;;;;;11.67;11.67;;;;;;;;5096396;27;45302;-75
2023/08/11 11:08:51;;;;;;;;;15.00;14.00;;;;;;;;5092187;27;45924;-73
2023/08/11 11:11:17;;;;;;;;;15.00;15.00;;;;;;;;5100509;27;45426;-74
2023/08/11 11:13:42;;;;;;;;;13.33;13.33;;;;;;;;5090305;27;45695;-74
2023/08/11 11:16:07;;;;;;;;;12.00;12.00;;;;;;;;5100284;27;47135;-74
2023/08/11 11:18:33;;;;;;;;;15.33;13.33;;;;;;;;5104905;27;45346;-73
2023/08/11 11:20:58;;;;;;;;;13.00;13.00;;;;;;;;5098432;27;45329;-75
2023/08/11 11:23:23;;;;;;;;;11.33;11.33;;;;;;;;5094926;27;45466;-74
2023/08/11 11:25:49;;;;;;;;;15.00;14.00;;;;;;;;5094340;27;45384;-74
2023/08/11 11:28:14;;;;;;;;;13.00;13.00;;;;;;;;5106219;27;45289;-74
2023/08/11 11:30:39;;;;;;;;;14.67;14.00;;;;;;;;5095340;27;45782;-74
2023/08/11 11:33:05;;;;;;;;;13.00;13.00;;;;;;;;5100201;27;45392;-74
2023/08/11 11:35:30;;;;;;;;;13.67;13.67;;;;;;;;5101039;27;45947;-74
2023/08/11 11:37:55;;;;;;;;;11.00;11.00;;;;;;;;5110105;27;45404;-74
2023/08/11 11:40:20;;;;;;;;;10.33;10.33;;;;;;;;5104785;27;45476;-74
2023/08/11 11:42:46;;;;;;;;;29.67;28.00;;;;;;;;5075635;27;47304;-76
2023/08/11 11:45:12;;;;;;;;;12.67;12.67;;;;;;;;5073455;27;46242;-76
2023/08/11 11:47:38;;;;;;;;;14.33;12.67;;;;;;;;5066822;27;45461;-75
2023/08/11 11:50:06;;;;;;;;;15.00;15.00;;;;;;;;5081885;27;45369;-75
2023/08/11 11:52:32;;;;;;;;;11.33;11.00;;;;;;;;5093549;27;45282;-75
2023/08/11 11:54:57;;;;;;;;;13.67;13.67;;;;;;;;5089147;27;45388;-75
2023/08/11 11:57:23;;;;;;;;;12.00;11.00;;;;;;;;5077001;27;45423;-76
2023/08/11 11:59:49;;;;;;;;;11.00;11.00;;;;;;;;5085008;27;45249;-78
2023/08/11 12:02:14;;;;;;;;;12.00;12.00;;;;;;;;5079648;27;46408;-77
2023/08/11 12:04:41;;;;;;;;;13.67;13.67;;;;;;;;5057866;27;46978;-75
2023/08/11 12:07:07;;;;;;;;;11.67;11.67;;;;;;;;5085199;27;45345;-76
2023/08/11 12:09:33;;;;;;;;;12.00;12.00;;;;;;;;5074060;27;45823;-77
2023/08/11 12:11:58;;;;;;;;;11.67;11.67;;;;;;;;5082256;27;45300;-76
2023/08/11 12:14:27;;;;;;;;;14.00;13.00;;;;;;;;5082108;27;46114;-77
2023/08/11 12:16:52;;;;;;;;;12.33;12.33;;;;;;;;5077077;27;45735;-76
2023/08/11 12:19:18;;;;;;;;;11.33;11.33;;;;;;;;5098412;27;45390;-77
2023/08/11 12:21:43;;;;;;;;;12.67;12.00;;;;;;;;5085404;27;45364;-77
2023/08/11 12:24:11;;;;;;;;;11.67;11.67;;;;;;;;5074478;27;47433;-77
2023/08/11 12:26:36;;;;;;;;;11.67;11.67;;;;;;;;5080844;27;45441;-77
2023/08/11 12:29:01;;;;;;;;;12.33;12.33;;;;;;;;5102792;27;45355;-78
2023/08/11 12:31:27;;;;;;;;;12.67;12.67;;;;;;;;5102406;27;45260;-75
2023/08/11 12:33:52;;;;;;;;;10.00;10.00;;;;;;;;5101158;27;47587;-76
2023/08/11 12:36:17;;;;;;;;;12.00;12.00;;;;;;;;5103930;27;45366;-75
2023/08/11 12:38:42;;;;;;;;;12.00;10.67;;;;;;;;5103717;27;45268;-74
2023/08/11 12:41:07;;;;;;;;;10.67;10.67;;;;;;;;5111638;27;45370;-74
2023/08/11 12:43:33;;;;;;;;;11.00;11.00;;;;;;;;5117786;27;45443;-74
2023/08/11 12:45:58;;;;;;;;;11.00;10.67;;;;;;;;5112303;27;45363;-74
2023/08/11 12:48:23;;;;;;;;;12.33;12.33;;;;;;;;5111974;27;45432;-74
2023/08/11 12:50:48;;;;;;;;;10.67;10.67;;;;;;;;5112499;27;45592;-74
2023/08/11 12:53:14;;;;;;;;;10.67;10.33;;;;;;;;5093243;27;47255;-74
2023/08/11 12:55:39;;;;;;;;;8.00;8.00;;;;;;;;5095402;27;46035;-75
2023/08/11 12:58:04;;;;;;;;;13.00;11.33;;;;;;;;5117380;27;45457;-75
2023/08/11 13:00:30;;;;;;;;;9.67;9.67;;;;;;;;5123167;27;45366;-75
2023/08/11 13:02:55;;;;;;;;;9.33;9.33;;;;;;;;5126581;27;45169;-76
2023/08/11 13:05:21;;;;;;;;;10.67;10.67;;;;;;;;5116284;27;45456;-75
2023/08/11 13:07:46;;;;;;;;;10.00;10.00;;;;;;;;5095829;27;45536;-75
2023/08/11 13:10:12;;;;;;;;;10.00;10.00;;;;;;;;5120288;27;45451;-77
2023/08/11 13:12:39;;;;;;;;;10.00;10.00;;;;;;;;5099529;27;47659;-77
2023/08/11 13:15:04;;;;;;;;;11.00;10.00;;;;;;;;5124659;27;45315;-77
2023/08/11 13:17:30;;;;;;;;;13.33;13.33;;;;;;;;5125376;27;45286;-77
2023/08/11 13:19:55;;;;;;;;;10.67;10.33;;;;;;;;5125291;27;45232;-74
2023/08/11 13:22:20;;;;;;;;;12.67;11.67;;;;;;;;5124534;27;46318;-75
2023/08/11 13:24:45;;;;;;;;;9.25;9.25;;;;;;;;5124623;27;45463;-74
2023/08/11 13:27:11;;;;;;;;;11.00;11.00;;;;;;;;5124541;27;45524;-78
2023/08/11 13:29:36;;;;;;;;;10.33;9.67;;;;;;;;5105491;27;46848;-74
2023/08/11 13:32:02;;;;;;;;;11.00;11.00;;;;;;;;5109693;27;45337;-75
2023/08/11 13:34:27;;;;;;;;;10.00;10.00;;;;;;;;5117064;27;45405;-74
2023/08/11 13:36:52;;;;;;;;;12.67;12.67;;;;;;;;5112294;27;45372;-74
2023/08/11 13:39:18;;;;;;;;;13.67;13.67;;;;;;;;5113667;27;45318;-75
2023/08/11 13:41:44;;;;;;;;;10.67;10.67;;;;;;;;5090549;27;47112;-75
2023/08/11 13:44:12;;;;;;;;;11.00;10.00;;;;;;;;5104045;27;45417;-74
2023/08/11 13:46:40;;;;;;;;;10.00;10.00;;;;;;;;5099354;27;45692;-74
2023/08/11 13:49:06;;;;;;;;;9.50;9.25;;;;;;;;5095834;27;46424;-74
2023/08/11 13:51:32;;;;;;;;;10.00;9.00;;;;;;;;5111823;27;45333;-76
2023/08/11 13:53:58;;;;;;;;;8.67;8.67;;;;;;;;5120897;27;45508;-74
2023/08/11 13:56:23;;;;;;;;;9.33;9.33;;;;;;;;5122085;27;45664;-76
2023/08/11 13:58:48;;;;;;;;;7.75;7.75;;;;;;;;5122133;27;45727;-74
2023/08/11 14:01:13;;;;;;;;;7.75;7.75;;;;;;;;5122017;27;45470;-76
2023/08/11 14:03:38;;;;;;;;;7.00;7.00;;;;;;;;5121146;27;45432;-76
2023/08/11 14:06:03;;;;;;;;;8.75;8.75;;;;;;;;5121672;27;45410;-76
2023/08/11 14:08:29;;;;;;;;;7.50;7.50;;;;;;;;5121878;27;45488;-75
2023/08/11 14:10:54;;;;;;;;;9.33;9.00;;;;;;;;5120893;27;45365;-74
2023/08/11 14:13:23;;;;;;;;;8.67;8.67;;;;;;;;5121815;27;45886;-74